sensor_id;sensor_type;location;lat;lon;timestamp;pressure;altitude;pressure_sealevel;temperature;humidity
70684;BME280;58263;48.146;11.440;2023-07-20T00:01:13;95470.16;;;22.62;45.78
70684;BME280;58263;48.146;11.440;2023-07-20T00:03:38;95476.00;;;22.70;46.03
70684;BME280;58263;48.146;11.440;2023-07-20T00:06:04;95479.50;;;22.61;45.84
70684;BME280;58263;48.146;11.440;2023-07-20T00:08:30;95477.72;;;22.57;46.93
70684;BME280;58263;48.146;11.440;2023-07-20T00:10:55;95469.81;;;22.55;46.47
70684;BME280;58263;48.146;11.440;2023-07-20T00:13:20;95479.31;;;22.58;47.08
70684;BME280;58263;48.146;11.440;2023-07-20T00:15:46;95468.09;;;22.37;47.23
70684;BME280;58263;48.146;11.440;2023-07-20T00:18:11;95467.97;;;22.42;47.22
70684;BME280;58263;48.146;11.440;2023-07-20T00:20:37;95474.09;;;22.39;46.73
70684;BME280;58263;48.146;11.440;2023-07-20T00:23:02;95463.56;;;22.32;46.52
70684;BME280;58263;48.146;11.440;2023-07-20T00:25:27;95463.25;;;22.34;47.27
70684;BME280;58263;48.146;11.440;2023-07-20T00:27:52;95473.81;;;22.26;47.65
70684;BME280;58263;48.146;11.440;2023-07-20T00:30:18;95476.41;;;22.32;47.08
70684;BME280;58263;48.146;11.440;2023-07-20T00:32:44;95478.28;;;22.22;47.27
70684;BME280;58263;48.146;11.440;2023-07-20T00:35:09;95487.28;;;22.23;47.27
70684;BME280;58263;48.146;11.440;2023-07-20T00:37:35;95490.22;;;22.26;47.32
70684;BME280;58263;48.146;11.440;2023-07-20T00:40:01;95484.25;;;22.24;46.96
70684;BME280;58263;48.146;11.440;2023-07-20T00:42:29;95479.28;;;22.26;47.99
70684;BME280;58263;48.146;11.440;2023-07-20T00:44:54;95482.94;;;22.22;47.38
70684;BME280;58263;48.146;11.440;2023-07-20T00:47:20;95483.44;;;22.01;47.81
70684;BME280;58263;48.146;11.440;2023-07-20T00:49:46;95480.16;;;22.13;47.30
70684;BME280;58263;48.146;11.440;2023-07-20T00:52:13;95493.50;;;22.15;47.86
70684;BME280;58263;48.146;11.440;2023-07-20T00:54:40;95494.69;;;22.22;47.99
70684;BME280;58263;48.146;11.440;2023-07-20T00:57:07;95489.50;;;22.21;47.78
70684;BME280;58263;48.146;11.440;2023-07-20T00:59:34;95484.38;;;22.19;48.17
70684;BME280;58263;48.146;11.440;2023-07-20T01:01:59;95490.56;;;22.11;48.30
70684;BME280;58263;48.146;11.440;2023-07-20T01:04:24;95491.53;;;22.06;48.29
70684;BME280;58263;48.146;11.440;2023-07-20T01:07:10;95493.94;;;22.08;47.79
70684;BME280;58263;48.146;11.440;2023-07-20T01:09:48;95485.63;;;22.13;47.87
70684;BME280;58263;48.146;11.440;2023-07-20T01:12:26;95486.22;;;22.10;47.79
70684;BME280;58263;48.146;11.440;2023-07-20T01:14:53;95487.97;;;22.06;47.61
70684;BME280;58263;48.146;11.440;2023-07-20T01:17:19;95483.22;;;22.11;48.85
70684;BME280;58263;48.146;11.440;2023-07-20T01:19:44;95479.09;;;22.00;47.68
70684;BME280;58263;48.146;11.440;2023-07-20T01:22:26;95479.75;;;22.06;48.30
70684;BME280;58263;48.146;11.440;2023-07-20T01:25:16;95483.00;;;21.85;48.20
70684;BME280;58263;48.146;11.440;2023-07-20T01:33:15;95476.78;;;21.93;48.36
70684;BME280;58263;48.146;11.440;2023-07-20T01:35:43;95479.03;;;21.91;48.73
70684;BME280;58263;48.146;11.440;2023-07-20T01:38:10;95483.88;;;21.94;48.42
70684;BME280;58263;48.146;11.440;2023-07-20T01:40:36;95483.84;;;21.72;48.78
70684;BME280;58263;48.146;11.440;2023-07-20T01:43:02;95486.41;;;21.91;48.20
70684;BME280;58263;48.146;11.440;2023-07-20T01:45:28;95482.25;;;21.71;48.74
70684;BME280;58263;48.146;11.440;2023-07-20T01:47:53;95483.13;;;21.80;48.57
70684;BME280;58263;48.146;11.440;2023-07-20T01:50:18;95485.88;;;21.80;47.98
70684;BME280;58263;48.146;11.440;2023-07-20T01:52:44;95489.88;;;21.83;48.16
70684;BME280;58263;48.146;11.440;2023-07-20T01:55:09;95488.13;;;21.87;48.43
70684;BME280;58263;48.146;11.440;2023-07-20T01:57:35;95483.13;;;21.80;48.06
70684;BME280;58263;48.146;11.440;2023-07-20T02:00:00;95488.09;;;21.78;48.24
70684;BME280;58263;48.146;11.440;2023-07-20T02:02:26;95489.59;;;21.84;47.80
70684;BME280;58263;48.146;11.440;2023-07-20T02:04:53;95492.84;;;21.72;47.53
70684;BME280;58263;48.146;11.440;2023-07-20T02:07:18;95498.69;;;21.80;47.48
70684;BME280;58263;48.146;11.440;2023-07-20T02:09:43;95506.56;;;21.81;47.71
70684;BME280;58263;48.146;11.440;2023-07-20T02:12:09;95494.75;;;21.72;47.46
70684;BME280;58263;48.146;11.440;2023-07-20T02:14:34;95491.91;;;21.77;47.56
70684;BME280;58263;48.146;11.440;2023-07-20T02:17:00;95491.44;;;21.75;47.17
70684;BME280;58263;48.146;11.440;2023-07-20T02:19:26;95504.34;;;21.83;47.22
70684;BME280;58263;48.146;11.440;2023-07-20T02:21:52;95506.09;;;21.79;47.50
70684;BME280;58263;48.146;11.440;2023-07-20T02:24:17;95500.75;;;21.74;47.24
70684;BME280;58263;48.146;11.440;2023-07-20T02:26:42;95496.31;;;21.64;46.80
70684;BME280;58263;48.146;11.440;2023-07-20T02:29:08;95496.31;;;21.64;47.09
70684;BME280;58263;48.146;11.440;2023-07-20T02:31:36;95496.13;;;21.60;46.96
70684;BME280;58263;48.146;11.440;2023-07-20T02:34:02;95492.06;;;21.58;46.95
70684;BME280;58263;48.146;11.440;2023-07-20T02:36:28;95496.75;;;21.57;47.23
70684;BME280;58263;48.146;11.440;2023-07-20T02:38:53;95502.91;;;21.49;47.29
70684;BME280;58263;48.146;11.440;2023-07-20T02:41:18;95497.38;;;21.54;47.56
70684;BME280;58263;48.146;11.440;2023-07-20T02:43:44;95503.19;;;21.61;47.22
70684;BME280;58263;48.146;11.440;2023-07-20T02:46:09;95504.53;;;21.50;47.34
70684;BME280;58263;48.146;11.440;2023-07-20T02:48:34;95518.75;;;21.47;47.54
70684;BME280;58263;48.146;11.440;2023-07-20T02:51:00;95521.19;;;21.35;47.13
70684;BME280;58263;48.146;11.440;2023-07-20T02:53:25;95510.38;;;21.43;47.19
70684;BME280;58263;48.146;11.440;2023-07-20T02:55:51;95507.47;;;21.40;47.66
70684;BME280;58263;48.146;11.440;2023-07-20T02:58:16;95515.56;;;21.31;48.73
70684;BME280;58263;48.146;11.440;2023-07-20T03:00:42;95518.91;;;21.14;49.23
70684;BME280;58263;48.146;11.440;2023-07-20T03:03:08;95518.00;;;21.19;49.86
70684;BME280;58263;48.146;11.440;2023-07-20T03:05:35;95516.56;;;21.21;49.82
70684;BME280;58263;48.146;11.440;2023-07-20T03:08:00;95523.22;;;21.29;49.26
70684;BME280;58263;48.146;11.440;2023-07-20T03:10:27;95526.28;;;21.14;50.18
70684;BME280;58263;48.146;11.440;2023-07-20T03:12:53;95528.41;;;21.03;50.12
70684;BME280;58263;48.146;11.440;2023-07-20T03:15:18;95526.28;;;21.00;50.08
70684;BME280;58263;48.146;11.440;2023-07-20T03:17:44;95535.88;;;21.11;50.47
70684;BME280;58263;48.146;11.440;2023-07-20T03:20:09;95547.97;;;20.91;50.46
70684;BME280;58263;48.146;11.440;2023-07-20T03:22:35;95552.63;;;20.90;50.98
70684;BME280;58263;48.146;11.440;2023-07-20T03:25:00;95545.03;;;20.87;53.13
70684;BME280;58263;48.146;11.440;2023-07-20T03:27:26;95535.75;;;20.74;58.54
70684;BME280;58263;48.146;11.440;2023-07-20T03:29:51;95545.09;;;20.35;58.63
70684;BME280;58263;48.146;11.440;2023-07-20T03:32:16;95556.63;;;20.13;62.43
70684;BME280;58263;48.146;11.440;2023-07-20T03:34:42;95544.94;;;19.93;62.45
70684;BME280;58263;48.146;11.440;2023-07-20T03:37:08;95555.94;;;20.21;62.30
70684;BME280;58263;48.146;11.440;2023-07-20T03:39:34;95551.50;;;19.92;62.65
70684;BME280;58263;48.146;11.440;2023-07-20T03:41:59;95559.78;;;20.01;62.68
70684;BME280;58263;48.146;11.440;2023-07-20T03:44:24;95560.91;;;19.81;62.67
70684;BME280;58263;48.146;11.440;2023-07-20T03:46:49;95564.94;;;19.65;62.92
70684;BME280;58263;48.146;11.440;2023-07-20T03:49:15;95562.84;;;19.56;64.57
70684;BME280;58263;48.146;11.440;2023-07-20T03:51:40;95571.75;;;19.43;65.01
70684;BME280;58263;48.146;11.440;2023-07-20T03:54:05;95566.03;;;19.64;64.80
70684;BME280;58263;48.146;11.440;2023-07-20T03:56:31;95557.41;;;19.56;64.23
70684;BME280;58263;48.146;11.440;2023-07-20T03:59:00;95574.97;;;19.45;64.92
70684;BME280;58263;48.146;11.440;2023-07-20T04:01:25;95572.50;;;19.24;66.21
70684;BME280;58263;48.146;11.440;2023-07-20T04:03:50;95573.28;;;19.25;65.51
70684;BME280;58263;48.146;11.440;2023-07-20T04:06:16;95562.84;;;19.37;65.92
70684;BME280;58263;48.146;11.440;2023-07-20T04:08:42;95557.41;;;19.37;66.64
70684;BME280;58263;48.146;11.440;2023-07-20T04:11:08;95562.94;;;19.03;66.39
70684;BME280;58263;48.146;11.440;2023-07-20T04:13:33;95569.84;;;18.95;67.54
70684;BME280;58263;48.146;11.440;2023-07-20T04:15:59;95577.78;;;18.86;67.25
70684;BME280;58263;48.146;11.440;2023-07-20T04:18:25;95582.50;;;18.75;68.24
70684;BME280;58263;48.146;11.440;2023-07-20T04:20:50;95573.50;;;18.80;69.10
70684;BME280;58263;48.146;11.440;2023-07-20T04:23:16;95570.25;;;18.78;68.25
70684;BME280;58263;48.146;11.440;2023-07-20T04:25:41;95579.16;;;18.84;69.70
70684;BME280;58263;48.146;11.440;2023-07-20T04:28:07;95572.44;;;18.76;67.99
70684;BME280;58263;48.146;11.440;2023-07-20T04:30:37;95584.41;;;19.04;67.87
70684;BME280;58263;48.146;11.440;2023-07-20T04:33:03;95583.91;;;19.02;68.22
70684;BME280;58263;48.146;11.440;2023-07-20T04:35:51;95578.75;;;19.01;67.11
70684;BME280;58263;48.146;11.440;2023-07-20T04:38:18;95584.00;;;18.92;66.76
70684;BME280;58263;48.146;11.440;2023-07-20T04:40:45;95572.81;;;18.94;67.37
70684;BME280;58263;48.146;11.440;2023-07-20T04:43:10;95576.88;;;18.96;66.42
70684;BME280;58263;48.146;11.440;2023-07-20T04:45:35;95586.50;;;18.83;65.80
70684;BME280;58263;48.146;11.440;2023-07-20T04:48:01;95588.94;;;18.85;66.26
70684;BME280;58263;48.146;11.440;2023-07-20T04:50:26;95593.53;;;18.89;67.19
70684;BME280;58263;48.146;11.440;2023-07-20T04:52:52;95598.28;;;19.03;66.45
70684;BME280;58263;48.146;11.440;2023-07-20T04:55:18;95604.31;;;19.00;65.92
70684;BME280;58263;48.146;11.440;2023-07-20T04:57:43;95603.59;;;18.89;65.98
70684;BME280;58263;48.146;11.440;2023-07-20T05:00:09;95606.44;;;19.03;65.95
70684;BME280;58263;48.146;11.440;2023-07-20T05:02:36;95595.63;;;18.98;65.58
70684;BME280;58263;48.146;11.440;2023-07-20T05:05:03;95601.84;;;19.03;64.55
70684;BME280;58263;48.146;11.440;2023-07-20T05:07:30;95600.97;;;19.08;64.30
70684;BME280;58263;48.146;11.440;2023-07-20T05:09:55;95597.25;;;19.23;63.78
70684;BME280;58263;48.146;11.440;2023-07-20T05:12:20;95598.94;;;19.19;61.14
70684;BME280;58263;48.146;11.440;2023-07-20T05:14:46;95604.19;;;19.10;57.64
70684;BME280;58263;48.146;11.440;2023-07-20T05:17:11;95593.97;;;19.26;58.28
70684;BME280;58263;48.146;11.440;2023-07-20T05:19:36;95595.28;;;19.29;57.27
70684;BME280;58263;48.146;11.440;2023-07-20T05:22:01;95593.50;;;19.43;56.77
70684;BME280;58263;48.146;11.440;2023-07-20T05:24:27;95591.13;;;19.36;56.50
70684;BME280;58263;48.146;11.440;2023-07-20T05:26:52;95594.59;;;19.42;55.24
70684;BME280;58263;48.146;11.440;2023-07-20T05:29:17;95595.34;;;19.48;53.34
70684;BME280;58263;48.146;11.440;2023-07-20T05:31:43;95594.94;;;19.59;55.17
70684;BME280;58263;48.146;11.440;2023-07-20T05:34:08;95599.84;;;19.57;54.42
70684;BME280;58263;48.146;11.440;2023-07-20T05:36:34;95600.28;;;19.46;54.40
70684;BME280;58263;48.146;11.440;2023-07-20T05:38:59;95597.47;;;19.51;53.75
70684;BME280;58263;48.146;11.440;2023-07-20T05:41:24;95600.38;;;19.59;53.15
70684;BME280;58263;48.146;11.440;2023-07-20T05:43:49;95591.66;;;19.57;53.08
70684;BME280;58263;48.146;11.440;2023-07-20T05:46:15;95597.13;;;19.57;51.45
70684;BME280;58263;48.146;11.440;2023-07-20T05:48:40;95598.16;;;19.62;52.42
70684;BME280;58263;48.146;11.440;2023-07-20T05:51:05;95607.72;;;19.78;51.11
70684;BME280;58263;48.146;11.440;2023-07-20T05:53:31;95606.69;;;19.74;50.48
70684;BME280;58263;48.146;11.440;2023-07-20T05:55:56;95604.38;;;19.86;50.88
70684;BME280;58263;48.146;11.440;2023-07-20T05:58:21;95609.75;;;19.91;50.73
70684;BME280;58263;48.146;11.440;2023-07-20T06:00:48;95615.44;;;20.14;49.73
70684;BME280;58263;48.146;11.440;2023-07-20T06:03:14;95611.63;;;20.15;49.18
70684;BME280;58263;48.146;11.440;2023-07-20T06:05:41;95604.31;;;20.30;49.19
70684;BME280;58263;48.146;11.440;2023-07-20T06:08:06;95605.88;;;20.36;49.28
70684;BME280;58263;48.146;11.440;2023-07-20T06:10:32;95618.88;;;20.39;48.61
70684;BME280;58263;48.146;11.440;2023-07-20T06:12:57;95612.25;;;20.45;48.75
70684;BME280;58263;48.146;11.440;2023-07-20T06:15:28;95616.09;;;20.44;47.30
70684;BME280;58263;48.146;11.440;2023-07-20T06:17:55;95609.97;;;20.52;47.89
70684;BME280;58263;48.146;11.440;2023-07-20T06:20:22;95610.56;;;20.49;47.69
70684;BME280;58263;48.146;11.440;2023-07-20T06:22:47;95614.81;;;20.55;48.00
70684;BME280;58263;48.146;11.440;2023-07-20T06:25:13;95614.56;;;20.71;47.41
70684;BME280;58263;48.146;11.440;2023-07-20T06:27:39;95606.84;;;20.78;47.13
70684;BME280;58263;48.146;11.440;2023-07-20T06:30:05;95603.59;;;20.90;47.68
70684;BME280;58263;48.146;11.440;2023-07-20T06:32:31;95602.50;;;20.91;47.14
70684;BME280;58263;48.146;11.440;2023-07-20T06:34:56;95599.16;;;20.80;46.93
70684;BME280;58263;48.146;11.440;2023-07-20T06:37:21;95604.44;;;20.90;47.48
70684;BME280;58263;48.146;11.440;2023-07-20T06:39:47;95606.72;;;20.83;47.10
70684;BME280;58263;48.146;11.440;2023-07-20T06:42:12;95607.03;;;20.82;47.53
70684;BME280;58263;48.146;11.440;2023-07-20T06:44:37;95594.03;;;20.92;47.18
70684;BME280;58263;48.146;11.440;2023-07-20T06:47:03;95599.69;;;20.96;46.83
70684;BME280;58263;48.146;11.440;2023-07-20T06:49:28;95602.44;;;21.10;47.22
70684;BME280;58263;48.146;11.440;2023-07-20T06:51:54;95603.38;;;21.19;46.80
70684;BME280;58263;48.146;11.440;2023-07-20T06:54:20;95607.00;;;21.28;46.29
70684;BME280;58263;48.146;11.440;2023-07-20T06:56:45;95600.22;;;21.12;46.05
70684;BME280;58263;48.146;11.440;2023-07-20T06:59:10;95608.50;;;21.35;46.38
70684;BME280;58263;48.146;11.440;2023-07-20T07:01:36;95604.91;;;21.53;46.19
70684;BME280;58263;48.146;11.440;2023-07-20T07:04:01;95605.50;;;21.78;45.84
70684;BME280;58263;48.146;11.440;2023-07-20T07:06:26;95606.41;;;22.10;45.00
70684;BME280;58263;48.146;11.440;2023-07-20T07:08:53;95594.75;;;22.32;44.25
70684;BME280;58263;48.146;11.440;2023-07-20T07:11:18;95599.19;;;22.42;42.96
70684;BME280;58263;48.146;11.440;2023-07-20T07:13:43;95601.47;;;22.49;42.11
70684;BME280;58263;48.146;11.440;2023-07-20T07:16:11;95597.72;;;22.67;42.30
70684;BME280;58263;48.146;11.440;2023-07-20T07:18:37;95597.69;;;22.81;42.25
70684;BME280;58263;48.146;11.440;2023-07-20T07:21:02;95597.56;;;22.64;42.08
70684;BME280;58263;48.146;11.440;2023-07-20T07:23:27;95589.34;;;22.64;41.52
70684;BME280;58263;48.146;11.440;2023-07-20T07:25:53;95599.28;;;22.37;42.35
70684;BME280;58263;48.146;11.440;2023-07-20T07:28:18;95596.75;;;22.63;41.91
70684;BME280;58263;48.146;11.440;2023-07-20T07:30:43;95597.81;;;22.76;42.50
70684;BME280;58263;48.146;11.440;2023-07-20T07:33:08;95605.13;;;22.67;42.13
70684;BME280;58263;48.146;11.440;2023-07-20T07:35:35;95602.28;;;22.72;40.82
70684;BME280;58263;48.146;11.440;2023-07-20T07:38:00;95606.63;;;22.73;41.37
70684;BME280;58263;48.146;11.440;2023-07-20T07:40:25;95605.81;;;22.72;41.79
70684;BME280;58263;48.146;11.440;2023-07-20T07:42:51;95604.50;;;22.92;41.95
70684;BME280;58263;48.146;11.440;2023-07-20T07:45:16;95608.25;;;23.05;40.81
70684;BME280;58263;48.146;11.440;2023-07-20T07:47:41;95603.59;;;23.06;41.36
70684;BME280;58263;48.146;11.440;2023-07-20T07:50:07;95605.34;;;23.02;41.29
70684;BME280;58263;48.146;11.440;2023-07-20T07:52:32;95600.63;;;22.93;39.42
70684;BME280;58263;48.146;11.440;2023-07-20T07:54:58;95604.41;;;23.06;39.39
70684;BME280;58263;48.146;11.440;2023-07-20T07:57:23;95612.06;;;23.18;41.09
70684;BME280;58263;48.146;11.440;2023-07-20T07:59:48;95607.00;;;23.11;39.74
70684;BME280;58263;48.146;11.440;2023-07-20T08:02:14;95605.91;;;23.12;41.15
70684;BME280;58263;48.146;11.440;2023-07-20T08:04:39;95614.03;;;23.26;40.26
70684;BME280;58263;48.146;11.440;2023-07-20T08:07:05;95612.34;;;23.48;40.06
70684;BME280;58263;48.146;11.440;2023-07-20T08:09:30;95615.53;;;23.41;40.09
70684;BME280;58263;48.146;11.440;2023-07-20T08:11:55;95608.78;;;23.48;39.63
70684;BME280;58263;48.146;11.440;2023-07-20T08:14:21;95605.16;;;23.70;39.28
70684;BME280;58263;48.146;11.440;2023-07-20T08:16:46;95616.13;;;23.78;39.33
70684;BME280;58263;48.146;11.440;2023-07-20T08:19:12;95618.53;;;23.71;38.30
70684;BME280;58263;48.146;11.440;2023-07-20T08:21:37;95623.56;;;23.87;38.08
70684;BME280;58263;48.146;11.440;2023-07-20T08:24:03;95616.19;;;23.96;37.75
70684;BME280;58263;48.146;11.440;2023-07-20T08:26:29;95612.31;;;23.88;37.97
70684;BME280;58263;48.146;11.440;2023-07-20T08:28:54;95615.16;;;23.83;38.32
70684;BME280;58263;48.146;11.440;2023-07-20T08:31:19;95627.47;;;23.94;38.31
70684;BME280;58263;48.146;11.440;2023-07-20T08:33:45;95619.50;;;23.75;38.24
70684;BME280;58263;48.146;11.440;2023-07-20T08:36:10;95623.50;;;23.69;37.94
70684;BME280;58263;48.146;11.440;2023-07-20T08:38:36;95620.44;;;23.62;38.20
70684;BME280;58263;48.146;11.440;2023-07-20T08:41:01;95619.31;;;23.63;38.69
70684;BME280;58263;48.146;11.440;2023-07-20T08:43:27;95622.53;;;23.56;38.57
70684;BME280;58263;48.146;11.440;2023-07-20T08:45:57;95622.72;;;23.69;38.71
70684;BME280;58263;48.146;11.440;2023-07-20T08:48:23;95619.06;;;23.82;37.85
70684;BME280;58263;48.146;11.440;2023-07-20T08:50:52;95620.22;;;23.90;37.01
70684;BME280;58263;48.146;11.440;2023-07-20T08:53:21;95622.25;;;23.84;37.15
70684;BME280;58263;48.146;11.440;2023-07-20T08:55:48;95617.91;;;23.74;37.77
70684;BME280;58263;48.146;11.440;2023-07-20T08:58:15;95618.16;;;24.13;37.91
70684;BME280;58263;48.146;11.440;2023-07-20T09:00:41;95612.84;;;24.17;37.77
70684;BME280;58263;48.146;11.440;2023-07-20T09:03:06;95612.38;;;24.41;37.43
70684;BME280;58263;48.146;11.440;2023-07-20T09:05:32;95617.69;;;24.55;37.91
70684;BME280;58263;48.146;11.440;2023-07-20T09:07:57;95610.56;;;24.01;36.16
70684;BME280;58263;48.146;11.440;2023-07-20T09:10:23;95595.28;;;24.61;37.66
70684;BME280;58263;48.146;11.440;2023-07-20T09:12:49;95601.84;;;24.87;37.24
70684;BME280;58263;48.146;11.440;2023-07-20T09:15:15;95596.78;;;25.15;36.32
70684;BME280;58263;48.146;11.440;2023-07-20T09:17:51;95594.81;;;25.63;35.40
70684;BME280;58263;48.146;11.440;2023-07-20T09:20:17;95593.75;;;25.55;33.52
70684;BME280;58263;48.146;11.440;2023-07-20T09:22:43;95586.13;;;26.12;33.93
70684;BME280;58263;48.146;11.440;2023-07-20T09:25:13;95584.72;;;26.48;33.31
70684;BME280;58263;48.146;11.440;2023-07-20T09:27:41;95586.22;;;26.79;31.79
70684;BME280;58263;48.146;11.440;2023-07-20T09:30:07;95589.19;;;27.20;33.75
70684;BME280;58263;48.146;11.440;2023-07-20T09:32:47;95585.19;;;27.17;32.06
70684;BME280;58263;48.146;11.440;2023-07-20T09:35:14;95579.59;;;26.80;31.76
70684;BME280;58263;48.146;11.440;2023-07-20T09:37:45;95583.75;;;26.65;33.07
70684;BME280;58263;48.146;11.440;2023-07-20T09:40:14;95587.25;;;26.53;33.17
70684;BME280;58263;48.146;11.440;2023-07-20T09:42:40;95583.44;;;26.45;33.54
70684;BME280;58263;48.146;11.440;2023-07-20T09:45:09;95594.25;;;26.72;34.01
70684;BME280;58263;48.146;11.440;2023-07-20T09:47:38;95595.91;;;26.85;32.96
70684;BME280;58263;48.146;11.440;2023-07-20T09:50:05;95584.00;;;26.93;33.39
70684;BME280;58263;48.146;11.440;2023-07-20T09:52:37;95580.69;;;26.45;34.09
70684;BME280;58263;48.146;11.440;2023-07-20T09:55:05;95582.53;;;25.90;32.93
70684;BME280;58263;48.146;11.440;2023-07-20T09:57:32;95572.00;;;26.22;33.23
70684;BME280;58263;48.146;11.440;2023-07-20T09:59:58;95568.38;;;26.30;32.88
70684;BME280;58263;48.146;11.440;2023-07-20T10:02:32;95573.00;;;27.06;33.65
70684;BME280;58263;48.146;11.440;2023-07-20T10:05:02;95572.81;;;27.36;32.52
70684;BME280;58263;48.146;11.440;2023-07-20T10:07:30;95585.59;;;27.53;31.81
70684;BME280;58263;48.146;11.440;2023-07-20T10:09:56;95580.88;;;27.90;32.19
70684;BME280;58263;48.146;11.440;2023-07-20T10:12:25;95579.66;;;27.05;32.68
70684;BME280;58263;48.146;11.440;2023-07-20T10:17:37;95585.34;;;26.87;34.10
70684;BME280;58263;48.146;11.440;2023-07-20T10:20:05;95573.56;;;26.65;33.36
70684;BME280;58263;48.146;11.440;2023-07-20T10:22:35;95576.28;;;26.32;33.60
70684;BME280;58263;48.146;11.440;2023-07-20T10:25:01;95575.94;;;26.34;33.94
70684;BME280;58263;48.146;11.440;2023-07-20T10:27:26;95571.72;;;26.15;34.71
70684;BME280;58263;48.146;11.440;2023-07-20T10:29:53;95566.50;;;26.22;35.02
70684;BME280;58263;48.146;11.440;2023-07-20T10:32:20;95567.75;;;25.74;35.16
70684;BME280;58263;48.146;11.440;2023-07-20T10:34:52;95563.09;;;25.95;34.97
70684;BME280;58263;48.146;11.440;2023-07-20T10:37:46;95560.94;;;26.01;33.84
70684;BME280;58263;48.146;11.440;2023-07-20T10:40:33;95565.41;;;26.36;33.67
70684;BME280;58263;48.146;11.440;2023-07-20T10:43:00;95562.72;;;26.48;34.52
70684;BME280;58263;48.146;11.440;2023-07-20T10:45:51;95558.75;;;26.37;34.83
70684;BME280;58263;48.146;11.440;2023-07-20T10:48:19;95558.81;;;26.49;34.08
70684;BME280;58263;48.146;11.440;2023-07-20T10:50:46;95561.41;;;26.33;33.08
70684;BME280;58263;48.146;11.440;2023-07-20T10:53:13;95553.88;;;26.00;34.75
70684;BME280;58263;48.146;11.440;2023-07-20T10:55:40;95559.13;;;26.14;34.97
70684;BME280;58263;48.146;11.440;2023-07-20T10:58:07;95558.31;;;26.35;33.84
70684;BME280;58263;48.146;11.440;2023-07-20T11:00:34;95548.38;;;26.21;34.36
70684;BME280;58263;48.146;11.440;2023-07-20T11:02:59;95550.78;;;26.23;34.35
70684;BME280;58263;48.146;11.440;2023-07-20T11:05:38;95553.88;;;26.21;33.26
70684;BME280;58263;48.146;11.440;2023-07-20T11:08:14;95538.31;;;26.25;34.22
70684;BME280;58263;48.146;11.440;2023-07-20T11:11:26;95542.44;;;26.19;33.89
70684;BME280;58263;48.146;11.440;2023-07-20T11:14:07;95532.97;;;26.29;33.44
70684;BME280;58263;48.146;11.440;2023-07-20T11:16:35;95532.91;;;26.50;33.30
70684;BME280;58263;48.146;11.440;2023-07-20T11:19:01;95540.63;;;26.23;34.00
70684;BME280;58263;48.146;11.440;2023-07-20T11:21:27;95537.19;;;26.60;33.28
70684;BME280;58263;48.146;11.440;2023-07-20T11:23:53;95539.09;;;26.47;33.84
70684;BME280;58263;48.146;11.440;2023-07-20T11:26:18;95535.56;;;26.80;33.94
70684;BME280;58263;48.146;11.440;2023-07-20T11:28:49;95545.09;;;26.82;33.09
70684;BME280;58263;48.146;11.440;2023-07-20T11:31:14;95539.53;;;26.49;32.98
70684;BME280;58263;48.146;11.440;2023-07-20T11:33:42;95541.75;;;26.77;33.78
70684;BME280;58263;48.146;11.440;2023-07-20T11:36:08;95535.56;;;26.80;33.11
70684;BME280;58263;48.146;11.440;2023-07-20T11:38:33;95519.03;;;26.80;33.68
70684;BME280;58263;48.146;11.440;2023-07-20T11:40:59;95529.28;;;26.58;34.00
70684;BME280;58263;48.146;11.440;2023-07-20T11:43:24;95525.03;;;26.61;33.57
70684;BME280;58263;48.146;11.440;2023-07-20T11:45:51;95524.88;;;26.45;33.64
70684;BME280;58263;48.146;11.440;2023-07-20T11:48:17;95522.34;;;26.40;33.52
70684;BME280;58263;48.146;11.440;2023-07-20T11:50:42;95522.81;;;26.75;33.24
70684;BME280;58263;48.146;11.440;2023-07-20T11:53:08;95520.28;;;26.15;33.81
70684;BME280;58263;48.146;11.440;2023-07-20T11:55:34;95511.72;;;26.51;33.73
70684;BME280;58263;48.146;11.440;2023-07-20T11:58:06;95513.25;;;26.60;32.83
70684;BME280;58263;48.146;11.440;2023-07-20T12:00:32;95505.09;;;26.97;33.60
70684;BME280;58263;48.146;11.440;2023-07-20T12:02:58;95503.47;;;27.09;32.87
70684;BME280;58263;48.146;11.440;2023-07-20T12:05:24;95513.22;;;27.06;33.88
70684;BME280;58263;48.146;11.440;2023-07-20T12:07:49;95508.16;;;26.84;32.84
70684;BME280;58263;48.146;11.440;2023-07-20T12:10:15;95500.41;;;27.60;32.40
70684;BME280;58263;48.146;11.440;2023-07-20T12:12:42;95488.22;;;28.14;31.29
70684;BME280;58263;48.146;11.440;2023-07-20T12:15:24;95481.22;;;28.61;30.32
70684;BME280;58263;48.146;11.440;2023-07-20T12:17:56;95480.66;;;28.99;30.27
70684;BME280;58263;48.146;11.440;2023-07-20T12:20:26;95488.22;;;29.18;29.82
70684;BME280;58263;48.146;11.440;2023-07-20T12:22:52;95481.81;;;29.46;29.18
70684;BME280;58263;48.146;11.440;2023-07-20T12:25:17;95486.53;;;29.81;28.80
70684;BME280;58263;48.146;11.440;2023-07-20T12:27:45;95478.59;;;29.80;29.00
70684;BME280;58263;48.146;11.440;2023-07-20T12:30:11;95476.72;;;29.84;29.88
70684;BME280;58263;48.146;11.440;2023-07-20T12:32:38;95470.94;;;29.73;28.73
70684;BME280;58263;48.146;11.440;2023-07-20T12:35:04;95460.44;;;29.11;29.62
70684;BME280;58263;48.146;11.440;2023-07-20T12:37:29;95469.16;;;29.13;29.30
70684;BME280;58263;48.146;11.440;2023-07-20T12:39:54;95463.81;;;29.21;29.96
70684;BME280;58263;48.146;11.440;2023-07-20T12:42:20;95466.44;;;29.49;29.86
70684;BME280;58263;48.146;11.440;2023-07-20T12:44:45;95457.63;;;29.43;29.39
70684;BME280;58263;48.146;11.440;2023-07-20T12:47:10;95458.63;;;29.51;29.11
70684;BME280;58263;48.146;11.440;2023-07-20T12:49:36;95455.13;;;29.54;28.63
70684;BME280;58263;48.146;11.440;2023-07-20T12:52:01;95440.56;;;29.57;29.59
70684;BME280;58263;48.146;11.440;2023-07-20T12:54:26;95451.94;;;29.20;30.17
70684;BME280;58263;48.146;11.440;2023-07-20T12:56:52;95453.97;;;29.23;29.63